Time;durP1;ratioP1;P1;durP2;ratioP2;P2;SDS_P1;SDS_P2;PMS_P1;PMS_P2;Temp;Humidity;BMP_temperature;BMP_pressure;BME280_temperature;BME280_humidity;BME280_pressure;Samples;Min_cycle;Max_cycle;Signal;HPM_P1;HPM_P2
2022/11/20 00:02:09;;;;;;;13.38;4.88;;;;;;;;;;6100842;23;20022;-66
2022/11/20 00:04:36;;;;;;;11.02;4.43;;;;;;;;;;6108146;23;20116;-66
2022/11/20 00:07:03;;;;;;;12.48;5.07;;;;;;;;;;6097407;23;20498;-67
2022/11/20 00:09:29;;;;;;;11.48;4.97;;;;;;;;;;6096212;23;20052;-62
2022/11/20 00:11:56;;;;;;;10.65;4.20;;;;;;;;;;6107655;23;20022;-66
2022/11/20 00:14:23;;;;;;;13.60;4.97;;;;;;;;;;6101441;23;20061;-66
2022/11/20 00:16:50;;;;;;;12.27;5.07;;;;;;;;;;6110075;23;20423;-65
2022/11/20 00:19:17;;;;;;;11.63;4.77;;;;;;;;;;6078370;23;20416;-62
2022/11/20 00:21:43;;;;;;;11.75;4.93;;;;;;;;;;6107776;23;20089;-66
2022/11/20 00:24:10;;;;;;;9.90;4.03;;;;;;;;;;6103240;23;20350;-63
2022/11/20 00:26:37;;;;;;;10.38;4.65;;;;;;;;;;6108707;23;20030;-63
2022/11/20 00:29:03;;;;;;;11.13;4.63;;;;;;;;;;6107505;23;20025;-63
2022/11/20 00:31:30;;;;;;;11.02;4.68;;;;;;;;;;6097508;23;20036;-65
2022/11/20 00:33:58;;;;;;;11.55;4.55;;;;;;;;;;6107898;23;20022;-64
2022/11/20 00:36:27;;;;;;;11.40;4.85;;;;;;;;;;6107038;23;20030;-60
2022/11/20 00:38:54;;;;;;;11.10;4.43;;;;;;;;;;6109692;23;20101;-63
2022/11/20 00:41:21;;;;;;;9.77;4.60;;;;;;;;;;6108394;23;20052;-61
2022/11/20 00:43:48;;;;;;;10.73;4.30;;;;;;;;;;6096378;23;20029;-66
2022/11/20 00:46:15;;;;;;;12.18;4.82;;;;;;;;;;6099137;23;20055;-62
2022/11/20 00:48:41;;;;;;;12.68;4.15;;;;;;;;;;6109792;23;20382;-60
2022/11/20 00:51:09;;;;;;;10.50;4.05;;;;;;;;;;6108089;23;20022;-63
2022/11/20 00:53:36;;;;;;;9.98;4.10;;;;;;;;;;6109367;23;20533;-65
2022/11/20 00:56:04;;;;;;;9.48;4.10;;;;;;;;;;6098546;23;20053;-67
2022/11/20 00:58:33;;;;;;;11.25;4.65;;;;;;;;;;6111029;23;20045;-62
2022/11/20 01:00:59;;;;;;;;;;;;;;;;;;6109185;23;20018;-65
2022/11/20 01:03:25;;;;;;;8.38;3.65;;;;;;;;;;6102579;23;19916;-66
2022/11/20 01:05:52;;;;;;;9.95;4.15;;;;;;;;;;6111129;23;20114;-64
2022/11/20 01:08:20;;;;;;;10.27;4.07;;;;;;;;;;6098898;23;20104;-66
2022/11/20 01:10:46;;;;;;;9.00;4.00;;;;;;;;;;6110471;23;20052;-62
2022/11/20 01:16:02;;;;;;;11.02;4.70;;;;;;;;;;6104080;23;20022;-60
2022/11/20 01:18:28;;;;;;;10.90;4.25;;;;;;;;;;6103380;23;20052;-64
2022/11/20 01:20:55;;;;;;;9.63;4.07;;;;;;;;;;6108824;23;20057;-66
2022/11/20 01:23:24;;;;;;;10.90;4.63;;;;;;;;;;6104172;23;20124;-61
2022/11/20 01:25:51;;;;;;;9.95;4.43;;;;;;;;;;6107559;23;20029;-62
2022/11/20 01:28:17;;;;;;;10.73;4.20;;;;;;;;;;6097087;23;20038;-66
2022/11/20 01:30:43;;;;;;;10.50;4.35;;;;;;;;;;6109279;23;20473;-64
2022/11/20 01:33:10;;;;;;;12.48;4.25;;;;;;;;;;6108420;23;20496;-61
2022/11/20 01:35:36;;;;;;;9.50;4.13;;;;;;;;;;6108872;23;20665;-63
2022/11/20 01:38:03;;;;;;;10.77;4.75;;;;;;;;;;6096951;23;20105;-65
2022/11/20 01:40:31;;;;;;;10.73;3.95;;;;;;;;;;6107847;23;20145;-64
2022/11/20 01:45:56;;;;;;;11.68;4.70;;;;;;;;;;6110689;23;20026;-62
2022/11/20 01:48:24;;;;;;;11.07;4.75;;;;;;;;;;6101205;23;20121;-64
2022/11/20 01:50:51;;;;;;;9.20;4.03;;;;;;;;;;6110087;23;20109;-63
2022/11/20 01:53:19;;;;;;;9.82;4.28;;;;;;;;;;6108556;23;20037;-60
2022/11/20 01:55:50;;;;;;;10.95;4.38;;;;;;;;;;6111058;23;20056;-60
2022/11/20 01:58:17;;;;;;;11.50;4.47;;;;;;;;;;6101935;23;20029;-62
2022/11/20 02:00:44;;;;;;;11.68;4.70;;;;;;;;;;6108352;23;20137;-64
2022/11/20 02:03:12;;;;;;;10.25;4.97;;;;;;;;;;6116018;23;20049;-62
2022/11/20 02:05:41;;;;;;;10.38;4.38;;;;;;;;;;6108306;23;20076;-62
2022/11/20 02:08:07;;;;;;;10.80;4.63;;;;;;;;;;6100218;23;20060;-64
2022/11/20 02:10:34;;;;;;;9.88;4.30;;;;;;;;;;6108361;23;20070;-61
2022/11/20 02:15:46;;;;;;;11.75;4.40;;;;;;;;;;6109701;23;20033;-64
2022/11/20 02:18:15;;;;;;;10.40;4.13;;;;;;;;;;6101137;23;20050;-61
2022/11/20 02:20:42;;;;;;;9.40;4.20;;;;;;;;;;6108539;23;20091;-65
2022/11/20 02:23:12;;;;;;;10.05;4.32;;;;;;;;;;6109671;23;20121;-63
2022/11/20 02:25:41;;;;;;;11.07;5.03;;;;;;;;;;6108622;23;20030;-63
2022/11/20 02:28:08;;;;;;;12.00;4.25;;;;;;;;;;6107103;23;20036;-61
2022/11/20 02:30:34;;;;;;;11.02;4.20;;;;;;;;;;6109577;23;20026;-64
2022/11/20 02:33:00;;;;;;;10.60;4.13;;;;;;;;;;6110847;23;20033;-65
2022/11/20 02:35:44;;;;;;;9.32;4.30;;;;;;;;;;6111989;23;20044;-62
2022/11/20 02:38:10;;;;;;;9.70;4.30;;;;;;;;;;6099090;23;20037;-65
2022/11/20 02:40:37;;;;;;;9.45;4.38;;;;;;;;;;6110201;23;20032;-60
2022/11/20 02:43:04;;;;;;;12.75;4.40;;;;;;;;;;6110939;23;20189;-62
2022/11/20 02:45:31;;;;;;;10.13;4.67;;;;;;;;;;6109822;23;20117;-62
2022/11/20 02:47:57;;;;;;;9.43;4.40;;;;;;;;;;6107193;23;20022;-65
2022/11/20 02:52:59;;;;;;;10.93;4.10;;;;;;;;;;6127106;23;20817;-63
2022/11/20 02:55:26;;;;;;;11.90;4.55;;;;;;;;;;6134151;23;20087;-65
2022/11/20 02:57:53;;;;;;;8.02;3.70;;;;;;;;;;6126201;23;20022;-62
2022/11/20 03:00:21;;;;;;;10.30;4.47;;;;;;;;;;6128006;23;20021;-64
2022/11/20 03:02:47;;;;;;;12.63;4.60;;;;;;;;;;6124739;23;20048;-64
2022/11/20 03:05:17;;;;;;;11.95;4.55;;;;;;;;;;6134936;23;20028;-62
2022/11/20 03:07:44;;;;;;;10.50;4.47;;;;;;;;;;6124791;23;20045;-64
2022/11/20 03:10:10;;;;;;;10.30;4.22;;;;;;;;;;6137603;23;20099;-65
2022/11/20 03:12:36;;;;;;;9.05;3.95;;;;;;;;;;6135696;23;20048;-62
2022/11/20 03:15:03;;;;;;;10.57;4.15;;;;;;;;;;6131871;23;20055;-62
2022/11/20 03:17:31;;;;;;;11.20;4.68;;;;;;;;;;6124294;23;20333;-62
2022/11/20 03:19:58;;;;;;;9.65;4.13;;;;;;;;;;6130985;23;20112;-62
2022/11/20 03:22:24;;;;;;;10.35;4.50;;;;;;;;;;6134522;23;20102;-62
2022/11/20 03:24:51;;;;;;;10.85;4.30;;;;;;;;;;6132216;23;20021;-66
2022/11/20 03:27:17;;;;;;;10.45;3.88;;;;;;;;;;6130440;23;20029;-59
2022/11/20 03:29:43;;;;;;;10.77;4.25;;;;;;;;;;6132547;23;21030;-62
2022/11/20 03:32:10;;;;;;;8.57;3.88;;;;;;;;;;6129851;23;20025;-62
2022/11/20 03:34:38;;;;;;;11.02;4.28;;;;;;;;;;6134207;23;20088;-63
2022/11/20 03:37:04;;;;;;;8.15;3.90;;;;;;;;;;6129581;23;20037;-62
2022/11/20 03:39:31;;;;;;;8.32;4.07;;;;;;;;;;6126708;23;20045;-61
2022/11/20 03:41:57;;;;;;;15.63;4.57;;;;;;;;;;6135235;23;20243;-65
2022/11/20 03:44:24;;;;;;;11.52;4.40;;;;;;;;;;6132875;23;20025;-64
2022/11/20 03:46:51;;;;;;;10.23;4.35;;;;;;;;;;6134459;23;20032;-65
2022/11/20 03:49:17;;;;;;;8.75;4.18;;;;;;;;;;6130158;23;20080;-64
2022/11/20 03:51:45;;;;;;;11.65;3.97;;;;;;;;;;6128263;23;20093;-62
2022/11/20 03:54:11;;;;;;;10.50;4.23;;;;;;;;;;6130117;23;20041;-63
2022/11/20 03:56:39;;;;;;;9.55;4.03;;;;;;;;;;6138779;23;20283;-67
2022/11/20 03:59:05;;;;;;;11.73;4.50;;;;;;;;;;6136892;23;20029;-65
2022/11/20 04:01:33;;;;;;;10.20;4.35;;;;;;;;;;6120878;23;20075;-66
2022/11/20 04:04:00;;;;;;;10.95;4.70;;;;;;;;;;6134939;23;20043;-64
2022/11/20 04:06:28;;;;;;;12.23;4.38;;;;;;;;;;6129506;23;20025;-64
2022/11/20 04:08:56;;;;;;;11.00;4.70;;;;;;;;;;6134645;23;20049;-66
2022/11/20 04:11:23;;;;;;;11.15;4.63;;;;;;;;;;6123198;23;20304;-64
2022/11/20 04:13:50;;;;;;;11.80;4.40;;;;;;;;;;6134909;23;20025;-63
2022/11/20 04:16:17;;;;;;;10.23;3.97;;;;;;;;;;6133706;23;20049;-65
2022/11/20 04:18:44;;;;;;;10.50;4.28;;;;;;;;;;6134405;23;20025;-62
2022/11/20 04:21:11;;;;;;;9.68;4.15;;;;;;;;;;6132658;23;20028;-64
2022/11/20 04:23:37;;;;;;;10.57;4.57;;;;;;;;;;6125771;23;20036;-61
2022/11/20 04:26:06;;;;;;;12.02;4.53;;;;;;;;;;6135603;23;20029;-62
2022/11/20 04:28:32;;;;;;;10.90;4.55;;;;;;;;;;6132444;23;20084;-64
2022/11/20 04:31:03;;;;;;;10.00;4.35;;;;;;;;;;6133909;23;20025;-65
2022/11/20 04:33:29;;;;;;;8.93;3.92;;;;;;;;;;6126946;23;20096;-64
2022/11/20 04:35:56;;;;;;;11.57;4.63;;;;;;;;;;6132976;23;20032;-66
2022/11/20 04:38:22;;;;;;;10.88;4.53;;;;;;;;;;6133508;23;20113;-65
2022/11/20 04:40:49;;;;;;;10.05;4.72;;;;;;;;;;6133641;23;20057;-61
2022/11/20 04:43:17;;;;;;;9.15;3.92;;;;;;;;;;6130014;23;20029;-66
2022/11/20 04:45:43;;;;;;;9.68;4.15;;;;;;;;;;6128388;23;20049;-64
2022/11/20 04:48:10;;;;;;;9.65;4.40;;;;;;;;;;6130512;23;20355;-64
2022/11/20 04:50:40;;;;;;;9.25;4.00;;;;;;;;;;6137063;23;20032;-64
2022/11/20 04:53:06;;;;;;;11.20;4.28;;;;;;;;;;6130490;23;20104;-65
2022/11/20 04:55:33;;;;;;;11.73;4.20;;;;;;;;;;6126698;23;20128;-62
2022/11/20 04:57:59;;;;;;;11.00;4.90;;;;;;;;;;6133418;23;20095;-63
2022/11/20 05:00:27;;;;;;;7.90;3.88;;;;;;;;;;6134405;23;20096;-63
2022/11/20 05:02:53;;;;;;;11.07;4.27;;;;;;;;;;6127149;23;20093;-66
2022/11/20 05:05:20;;;;;;;10.13;4.15;;;;;;;;;;6131724;23;20034;-65
2022/11/20 05:07:47;;;;;;;10.73;4.60;;;;;;;;;;6132606;23;20029;-63
2022/11/20 05:10:15;;;;;;;10.30;4.28;;;;;;;;;;6133344;23;20590;-62
2022/11/20 05:12:41;;;;;;;12.07;4.30;;;;;;;;;;6133110;23;20345;-62
2022/11/20 05:15:08;;;;;;;8.27;3.60;;;;;;;;;;6132081;23;20025;-64
2022/11/20 05:17:36;;;;;;;9.55;3.53;;;;;;;;;;6112036;23;20068;-65
2022/11/20 05:20:03;;;;;;;11.60;4.40;;;;;;;;;;6132086;23;20138;-65
2022/11/20 05:22:29;;;;;;;8.35;3.85;;;;;;;;;;6119454;23;20100;-65
2022/11/20 05:24:55;;;;;;;11.82;5.32;;;;;;;;;;6130343;23;20029;-63
2022/11/20 05:27:22;;;;;;;12.13;4.50;;;;;;;;;;6130119;23;20025;-63
2022/11/20 05:29:49;;;;;;;10.20;3.78;;;;;;;;;;6128782;23;20042;-62
2022/11/20 05:32:15;;;;;;;10.45;4.25;;;;;;;;;;6132925;23;20069;-63
2022/11/20 05:34:43;;;;;;;11.75;4.50;;;;;;;;;;6132145;23;20025;-62
2022/11/20 05:37:10;;;;;;;9.43;3.63;;;;;;;;;;6132891;23;20022;-66
2022/11/20 05:39:36;;;;;;;10.93;4.25;;;;;;;;;;6128494;23;20056;-64
2022/11/20 05:44:47;;;;;;;10.50;3.88;;;;;;;;;;6132032;23;20028;-64
2022/11/20 05:47:13;;;;;;;9.77;4.28;;;;;;;;;;6133317;23;20033;-62
2022/11/20 05:49:40;;;;;;;8.70;3.92;;;;;;;;;;6124549;23;20029;-63
2022/11/20 05:52:08;;;;;;;10.57;4.13;;;;;;;;;;6131542;23;20086;-66
2022/11/20 05:54:34;;;;;;;10.30;3.90;;;;;;;;;;6132686;23;20021;-63
2022/11/20 05:57:01;;;;;;;8.45;3.45;;;;;;;;;;6131374;23;20037;-65
2022/11/20 05:59:27;;;;;;;9.02;4.05;;;;;;;;;;6124639;23;20033;-64
2022/11/20 06:01:54;;;;;;;13.10;4.78;;;;;;;;;;6128243;23;20120;-63
2022/11/20 06:04:20;;;;;;;8.32;3.72;;;;;;;;;;6132796;23;20097;-65
2022/11/20 06:06:47;;;;;;;9.18;4.05;;;;;;;;;;6133712;23;20029;-63
2022/11/20 06:09:16;;;;;;;10.77;4.30;;;;;;;;;;6135005;23;20029;-64
2022/11/20 06:11:42;;;;;;;9.00;4.20;;;;;;;;;;6126304;23;20022;-64
2022/11/20 06:14:08;;;;;;;8.23;4.03;;;;;;;;;;6136624;23;20021;-63
2022/11/20 06:16:35;;;;;;;8.65;3.53;;;;;;;;;;6135819;23;20097;-62
2022/11/20 06:19:01;;;;;;;7.72;3.75;;;;;;;;;;6140929;23;20025;-66
2022/11/20 06:21:28;;;;;;;11.38;4.30;;;;;;;;;;6125854;23;20087;-63
2022/11/20 06:23:54;;;;;;;10.00;4.40;;;;;;;;;;6133537;23;20061;-64
2022/11/20 06:26:23;;;;;;;10.57;4.20;;;;;;;;;;6132469;23;20108;-65
2022/11/20 06:28:50;;;;;;;12.45;4.35;;;;;;;;;;6134621;23;20132;-65
2022/11/20 06:31:17;;;;;;;10.45;4.03;;;;;;;;;;6130908;23;20097;-65
2022/11/20 06:33:44;;;;;;;9.02;4.35;;;;;;;;;;6128227;23;20052;-63
2022/11/20 06:36:11;;;;;;;9.70;4.32;;;;;;;;;;6134195;23;20112;-65
2022/11/20 06:38:37;;;;;;;9.80;4.18;;;;;;;;;;6132511;23;20076;-65
2022/11/20 06:41:04;;;;;;;11.50;4.03;;;;;;;;;;6136305;23;20029;-65
2022/11/20 06:43:33;;;;;;;9.40;4.07;;;;;;;;;;6122401;23;20025;-63
2022/11/20 06:46:00;;;;;;;11.55;4.47;;;;;;;;;;6134945;23;20043;-63
2022/11/20 06:48:27;;;;;;;9.02;3.55;;;;;;;;;;6132323;23;20033;-63
2022/11/20 06:50:53;;;;;;;11.73;4.97;;;;;;;;;;6133973;23;20021;-62
2022/11/20 06:53:20;;;;;;;10.00;4.40;;;;;;;;;;6129339;23;20025;-65
2022/11/20 06:55:47;;;;;;;8.63;3.83;;;;;;;;;;6129773;23;20025;-63
2022/11/20 06:58:14;;;;;;;10.48;4.15;;;;;;;;;;6131598;23;20021;-65
2022/11/20 07:00:43;;;;;;;8.85;4.15;;;;;;;;;;6134802;23;20030;-64
2022/11/20 07:03:10;;;;;;;10.05;4.55;;;;;;;;;;6131267;23;20043;-63
2022/11/20 07:05:37;;;;;;;9.80;3.88;;;;;;;;;;6124141;23;20025;-64
2022/11/20 07:08:03;;;;;;;11.48;4.57;;;;;;;;;;6133236;23;20028;-63
2022/11/20 07:10:30;;;;;;;9.75;4.35;;;;;;;;;;6134364;23;20028;-64
2022/11/20 07:12:57;;;;;;;9.10;4.32;;;;;;;;;;6130768;23;20017;-63
2022/11/20 07:15:24;;;;;;;9.25;3.85;;;;;;;;;;6127998;23;20018;-64
2022/11/20 07:17:52;;;;;;;11.65;4.22;;;;;;;;;;6132940;23;20084;-66
2022/11/20 07:20:19;;;;;;;11.80;4.50;;;;;;;;;;6133737;23;20036;-66
2022/11/20 07:22:45;;;;;;;11.07;4.88;;;;;;;;;;6133075;23;20021;-66
2022/11/20 07:25:12;;;;;;;10.43;4.72;;;;;;;;;;6133644;23;20084;-66
2022/11/20 07:27:38;;;;;;;10.32;4.28;;;;;;;;;;6125374;23;20104;-63
2022/11/20 07:30:05;;;;;;;10.93;4.18;;;;;;;;;;6132284;23;20082;-66
2022/11/20 07:32:32;;;;;;;12.40;4.55;;;;;;;;;;6133019;23;20088;-66
2022/11/20 07:35:00;;;;;;;11.93;4.70;;;;;;;;;;6131268;23;20101;-66
2022/11/20 07:37:27;;;;;;;10.75;4.45;;;;;;;;;;6131306;23;20028;-64
2022/11/20 07:39:54;;;;;;;11.52;4.50;;;;;;;;;;6127547;23;20040;-65
2022/11/20 07:42:20;;;;;;;11.35;4.93;;;;;;;;;;6133535;23;20030;-66
2022/11/20 07:44:47;;;;;;;11.73;4.40;;;;;;;;;;6105087;23;20030;-64
2022/11/20 07:47:15;;;;;;;8.82;4.03;;;;;;;;;;6130928;23;20021;-65
2022/11/20 07:49:43;;;;;;;;;;;;;;;;;;6125332;23;20092;-65
2022/11/20 07:52:11;;;;;;;9.57;4.33;;;;;;;;;;6132547;23;20004;-65
2022/11/20 07:54:37;;;;;;;10.07;3.83;;;;;;;;;;6131538;23;20029;-63
2022/11/20 07:57:07;;;;;;;9.80;4.32;;;;;;;;;;6132785;23;20289;-65
2022/11/20 07:59:33;;;;;;;10.95;3.80;;;;;;;;;;6128833;23;20048;-66
2022/11/20 08:02:00;;;;;;;12.43;4.40;;;;;;;;;;6129420;23;20021;-66
2022/11/20 08:04:26;;;;;;;10.75;4.25;;;;;;;;;;6131798;23;20025;-65
2022/11/20 08:06:53;;;;;;;12.15;4.65;;;;;;;;;;6138026;23;20025;-66
2022/11/20 08:09:23;;;;;;;11.10;4.70;;;;;;;;;;6130995;23;20080;-66
2022/11/20 08:14:34;;;;;;;10.20;4.35;;;;;;;;;;6132109;23;20013;-65
2022/11/20 08:17:02;;;;;;;10.02;3.90;;;;;;;;;;6132164;23;20024;-65
2022/11/20 08:19:29;;;;;;;13.10;5.38;;;;;;;;;;6126526;23;20025;-66
2022/11/20 08:21:56;;;;;;;8.07;3.90;;;;;;;;;;6135304;23;20066;-66
2022/11/20 08:24:24;;;;;;;12.98;4.78;;;;;;;;;;6125384;23;20031;-65
2022/11/20 08:26:51;;;;;;;9.93;4.50;;;;;;;;;;6131667;23;20022;-65
2022/11/20 08:29:17;;;;;;;10.73;4.35;;;;;;;;;;6130568;23;20086;-65
2022/11/20 08:31:44;;;;;;;10.63;4.18;;;;;;;;;;6124757;23;20029;-65
2022/11/20 08:34:10;;;;;;;11.02;4.47;;;;;;;;;;6132629;23;20064;-65
2022/11/20 08:36:37;;;;;;;9.15;4.28;;;;;;;;;;6120466;23;20076;-65
2022/11/20 08:39:04;;;;;;;11.30;5.20;;;;;;;;;;6132508;23;20022;-66
2022/11/20 08:41:33;;;;;;;11.15;4.85;;;;;;;;;;6122379;23;20108;-66
2022/11/20 08:44:00;;;;;;;10.73;4.43;;;;;;;;;;6133973;23;20047;-65
2022/11/20 08:46:27;;;;;;;12.25;4.68;;;;;;;;;;6131568;23;20021;-65
2022/11/20 08:48:54;;;;;;;10.48;4.75;;;;;;;;;;6133488;23;20039;-65
2022/11/20 08:51:21;;;;;;;9.43;4.20;;;;;;;;;;6130153;23;20033;-65
2022/11/20 08:53:49;;;;;;;11.05;4.68;;;;;;;;;;6130078;23;20108;-65
2022/11/20 08:56:16;;;;;;;9.48;4.32;;;;;;;;;;6134086;23;20048;-65
2022/11/20 08:58:44;;;;;;;12.05;4.88;;;;;;;;;;6130947;23;20079;-65
2022/11/20 09:01:11;;;;;;;10.60;4.95;;;;;;;;;;6132757;23;20083;-65
2022/11/20 09:03:37;;;;;;;10.57;5.28;;;;;;;;;;6117849;23;20092;-65
2022/11/20 09:06:05;;;;;;;11.02;4.65;;;;;;;;;;6132782;23;20029;-65
2022/11/20 09:08:32;;;;;;;10.13;5.17;;;;;;;;;;6130695;23;20055;-66
2022/11/20 09:10:59;;;;;;;11.68;4.97;;;;;;;;;;6137394;23;20036;-65
2022/11/20 09:13:26;;;;;;;11.55;5.10;;;;;;;;;;6121462;23;20041;-65
2022/11/20 09:15:56;;;;;;;11.10;5.05;;;;;;;;;;6130728;23;20104;-66
2022/11/20 09:18:22;;;;;;;11.40;5.13;;;;;;;;;;6130949;23;20092;-65
2022/11/20 09:20:49;;;;;;;11.00;4.93;;;;;;;;;;6133056;23;20028;-65
2022/11/20 09:23:16;;;;;;;11.75;5.50;;;;;;;;;;6115358;23;20026;-66
2022/11/20 09:25:45;;;;;;;12.70;5.68;;;;;;;;;;6112777;23;20041;-65
2022/11/20 09:28:11;;;;;;;14.32;5.00;;;;;;;;;;6130104;23;20028;-66
2022/11/20 09:30:38;;;;;;;11.52;5.20;;;;;;;;;;6134681;23;20048;-65
2022/11/20 09:33:08;;;;;;;14.88;5.25;;;;;;;;;;6130527;23;20108;-64
2022/11/20 09:35:39;;;;;;;11.10;5.22;;;;;;;;;;6111987;23;20303;-65
2022/11/20 09:38:10;;;;;;;10.30;5.20;;;;;;;;;;6132647;23;20035;-65
2022/11/20 09:40:38;;;;;;;9.63;4.78;;;;;;;;;;6132291;23;20021;-65
2022/11/20 09:43:09;;;;;;;11.03;4.87;;;;;;;;;;6132233;23;20029;-65
2022/11/20 09:45:44;;;;;;;13.60;5.57;;;;;;;;;;6121735;23;20269;-66
2022/11/20 09:48:24;;;;;;;12.38;5.57;;;;;;;;;;6123143;23;20025;-65
2022/11/20 09:50:53;;;;;;;10.93;4.90;;;;;;;;;;6062757;23;20022;-65
2022/11/20 09:53:23;;;;;;;11.00;4.53;;;;;;;;;;6129819;23;20092;-64
2022/11/20 09:55:52;;;;;;;13.25;5.78;;;;;;;;;;6117852;23;20031;-65
2022/11/20 09:58:25;;;;;;;13.40;5.57;;;;;;;;;;6132967;23;20028;-65
2022/11/20 10:00:56;;;;;;;12.85;5.22;;;;;;;;;;6130899;23;20037;-64
2022/11/20 10:03:28;;;;;;;10.57;4.85;;;;;;;;;;6125159;23;20136;-65
2022/11/20 10:05:55;;;;;;;11.05;5.30;;;;;;;;;;6130823;23;20068;-66
2022/11/20 10:08:29;;;;;;;12.38;5.40;;;;;;;;;;6132913;23;20033;-67
2022/11/20 10:11:01;;;;;;;12.88;5.72;;;;;;;;;;6116689;23;20033;-67
2022/11/20 10:13:37;;;;;;;12.57;5.47;;;;;;;;;;6095716;23;20052;-65
2022/11/20 10:16:14;;;;;;;10.93;5.20;;;;;;;;;;6133586;23;20029;-66
2022/11/20 10:18:48;;;;;;;13.80;5.63;;;;;;;;;;6121597;23;20025;-65
2022/11/20 10:21:21;;;;;;;10.60;4.82;;;;;;;;;;6132070;23;20100;-67
2022/11/20 10:24:04;;;;;;;12.15;5.28;;;;;;;;;;6134292;23;20025;-66
2022/11/20 10:26:42;;;;;;;11.43;5.45;;;;;;;;;;6104931;23;20032;-66
2022/11/20 10:29:11;;;;;;;10.43;4.80;;;;;;;;;;6084860;23;20108;-64
2022/11/20 10:31:39;;;;;;;12.85;5.30;;;;;;;;;;6125266;23;20108;-63
2022/11/20 10:34:09;;;;;;;13.23;6.05;;;;;;;;;;6122961;23;20029;-63
2022/11/20 10:36:38;;;;;;;13.32;5.68;;;;;;;;;;6095387;23;20068;-64
2022/11/20 10:39:06;;;;;;;14.68;5.80;;;;;;;;;;6135291;23;20089;-63
2022/11/20 10:41:39;;;;;;;14.13;5.57;;;;;;;;;;6114180;23;20025;-64
2022/11/20 10:44:10;;;;;;;11.18;5.50;;;;;;;;;;6122014;23;20028;-65
2022/11/20 10:46:41;;;;;;;15.10;5.93;;;;;;;;;;6133855;23;20029;-64
2022/11/20 10:49:17;;;;;;;13.55;5.72;;;;;;;;;;6121405;23;20027;-65
2022/11/20 10:51:51;;;;;;;12.70;5.15;;;;;;;;;;6130322;23;20057;-63
2022/11/20 10:54:22;;;;;;;10.77;5.32;;;;;;;;;;6135424;23;20013;-64
2022/11/20 10:56:51;;;;;;;14.10;6.03;;;;;;;;;;6134997;23;20036;-66
2022/11/20 10:59:28;;;;;;;12.25;5.13;;;;;;;;;;6133924;23;20027;-64
2022/11/20 11:01:54;;;;;;;11.88;4.95;;;;;;;;;;6130931;23;20095;-63
2022/11/20 11:04:37;;;;;;;13.15;5.43;;;;;;;;;;6111872;23;20029;-64
2022/11/20 11:07:07;;;;;;;11.93;5.22;;;;;;;;;;6126348;23;20084;-65
2022/11/20 11:09:37;;;;;;;14.63;6.10;;;;;;;;;;6101923;23;20025;-65
2022/11/20 11:12:07;;;;;;;13.98;5.55;;;;;;;;;;6120355;23;20028;-64
2022/11/20 11:14:42;;;;;;;11.75;5.53;;;;;;;;;;6107453;23;20030;-64
2022/11/20 11:17:21;;;;;;;11.90;5.45;;;;;;;;;;6133185;23;20125;-64
2022/11/20 11:20:01;;;;;;;13.48;5.93;;;;;;;;;;6137045;23;20033;-62
2022/11/20 11:22:29;;;;;;;14.32;6.38;;;;;;;;;;6118224;23;20030;-65
2022/11/20 11:24:57;;;;;;;;;;;;;;;;;;6127265;23;20091;-63
2022/11/20 11:27:29;;;;;;;13.60;5.75;;;;;;;;;;6130432;23;19921;-63
2022/11/20 11:30:17;;;;;;;14.63;6.45;;;;;;;;;;6126679;23;20026;-63
2022/11/20 11:32:44;;;;;;;12.57;5.53;;;;;;;;;;6111689;23;20036;-63
2022/11/20 11:35:24;;;;;;;16.48;6.05;;;;;;;;;;6116864;23;20029;-65
2022/11/20 11:37:53;;;;;;;14.70;6.30;;;;;;;;;;6123472;23;20033;-63
2022/11/20 11:40:20;;;;;;;13.70;6.45;;;;;;;;;;6131549;23;20025;-63
2022/11/20 11:42:51;;;;;;;14.43;5.95;;;;;;;;;;6140159;23;20026;-65
2022/11/20 11:45:20;;;;;;;18.25;6.15;;;;;;;;;;6101750;23;20036;-66
2022/11/20 11:47:48;;;;;;;13.88;6.20;;;;;;;;;;6119778;23;20029;-65
2022/11/20 11:50:16;;;;;;;14.18;6.40;;;;;;;;;;6132492;23;20112;-63
2022/11/20 11:52:47;;;;;;;14.15;6.20;;;;;;;;;;6134107;23;20033;-66
2022/11/20 11:55:17;;;;;;;16.05;6.53;;;;;;;;;;6117964;23;20033;-65
2022/11/20 11:57:47;;;;;;;14.57;6.15;;;;;;;;;;6131312;23;20029;-64
2022/11/20 12:00:15;;;;;;;14.30;6.43;;;;;;;;;;6133466;23;20029;-63
2022/11/20 12:02:49;;;;;;;15.18;6.60;;;;;;;;;;6120253;23;20021;-66
2022/11/20 12:05:18;;;;;;;13.02;6.50;;;;;;;;;;6096037;23;20026;-63
2022/11/20 12:07:49;;;;;;;13.05;5.93;;;;;;;;;;6125309;23;20057;-64
2022/11/20 12:10:20;;;;;;;13.68;6.50;;;;;;;;;;6133373;23;20037;-62
2022/11/20 12:12:49;;;;;;;20.50;7.20;;;;;;;;;;6135248;23;20095;-66
2022/11/20 12:15:15;;;;;;;;;;;;;;;;;;6118355;23;20049;-64
2022/11/20 12:17:42;;;;;;;15.25;6.65;;;;;;;;;;6097460;23;19920;-64
2022/11/20 12:20:13;;;;;;;15.73;6.63;;;;;;;;;;6133390;23;20025;-63
2022/11/20 12:22:45;;;;;;;18.73;7.30;;;;;;;;;;6133554;23;20025;-65
2022/11/20 12:25:18;;;;;;;15.60;6.70;;;;;;;;;;6132212;23;20048;-64
2022/11/20 12:27:59;;;;;;;13.13;6.30;;;;;;;;;;6119785;23;20798;-67
2022/11/20 12:30:26;;;;;;;17.85;7.03;;;;;;;;;;6067023;23;20037;-64
2022/11/20 12:33:04;;;;;;;19.05;7.00;;;;;;;;;;6108637;23;20025;-66
2022/11/20 12:35:31;;;;;;;;;;;;;;;;;;6084392;23;20030;-64
2022/11/20 12:38:04;;;;;;;14.15;6.30;;;;;;;;;;6133607;23;19920;-62
2022/11/20 12:40:41;;;;;;;14.90;7.15;;;;;;;;;;6121103;23;20036;-64
2022/11/20 12:46:11;;;;;;;14.73;6.35;;;;;;;;;;6135549;23;20018;-64
2022/11/20 12:48:42;;;;;;;17.17;6.70;;;;;;;;;;6122561;23;20092;-64
2022/11/20 12:51:20;;;;;;;16.17;7.25;;;;;;;;;;6123771;23;20033;-66
2022/11/20 12:53:52;;;;;;;14.05;6.18;;;;;;;;;;6129045;23;20946;-64
2022/11/20 12:56:28;;;;;;;14.27;6.85;;;;;;;;;;6131561;23;20120;-65
2022/11/20 12:59:01;;;;;;;15.40;6.53;;;;;;;;;;6119845;23;20037;-63
2022/11/20 13:01:43;;;;;;;14.43;6.65;;;;;;;;;;6103723;23;20056;-65
2022/11/20 13:04:20;;;;;;;16.45;6.70;;;;;;;;;;6116736;23;20032;-63
2022/11/20 13:06:47;;;;;;;19.27;6.78;;;;;;;;;;6132766;23;20033;-63
2022/11/20 13:09:14;;;;;;;18.02;7.15;;;;;;;;;;6113445;23;20089;-65
2022/11/20 13:11:45;;;;;;;15.27;6.65;;;;;;;;;;6118103;23;20025;-62
2022/11/20 13:14:20;;;;;;;16.85;7.13;;;;;;;;;;6106350;23;20058;-63
2022/11/20 13:16:51;;;;;;;14.00;6.05;;;;;;;;;;6099668;23;20037;-63
2022/11/20 13:19:19;;;;;;;18.35;7.07;;;;;;;;;;6113252;23;20234;-65
2022/11/20 13:21:49;;;;;;;21.27;8.02;;;;;;;;;;6136594;23;20029;-65
2022/11/20 13:24:23;;;;;;;15.73;7.55;;;;;;;;;;6091728;23;20023;-63
2022/11/20 13:27:02;;;;;;;14.68;7.00;;;;;;;;;;6103753;23;20025;-64
2022/11/20 13:29:28;;;;;;;14.70;6.82;;;;;;;;;;6127695;23;20021;-62
2022/11/20 13:32:03;;;;;;;16.02;7.07;;;;;;;;;;6135452;23;20064;-63
2022/11/20 13:34:30;;;;;;;17.15;7.53;;;;;;;;;;6101106;23;20057;-64
2022/11/20 13:36:58;;;;;;;17.88;7.60;;;;;;;;;;6134561;23;20040;-63
2022/11/20 13:39:25;;;;;;;20.00;8.07;;;;;;;;;;6128842;23;20033;-65
2022/11/20 13:41:55;;;;;;;21.75;7.75;;;;;;;;;;6120250;23;20138;-65
2022/11/20 13:44:38;;;;;;;17.52;7.75;;;;;;;;;;6080715;23;20147;-64
2022/11/20 13:47:07;;;;;;;18.20;7.40;;;;;;;;;;6128112;23;20192;-65
2022/11/20 13:49:35;;;;;;;17.13;7.75;;;;;;;;;;6132826;23;20112;-61
2022/11/20 13:52:24;;;;;;;14.45;6.68;;;;;;;;;;6133434;23;20116;-65
2022/11/20 13:55:00;;;;;;;15.50;6.75;;;;;;;;;;6108512;23;20030;-66
2022/11/20 13:57:35;;;;;;;19.05;7.35;;;;;;;;;;6037330;23;20033;-66
2022/11/20 14:00:10;;;;;;;15.88;6.38;;;;;;;;;;6111552;23;20032;-64
2022/11/20 14:02:37;;;;;;;18.83;7.57;;;;;;;;;;6134787;23;20029;-65
2022/11/20 14:05:17;;;;;;;18.85;8.02;;;;;;;;;;6127387;23;20025;-63
2022/11/20 14:07:43;;;;;;;17.73;7.95;;;;;;;;;;6123241;23;20025;-65
2022/11/20 14:10:20;;;;;;;19.77;8.05;;;;;;;;;;6121757;23;20087;-62
2022/11/20 14:12:47;;;;;;;15.90;7.13;;;;;;;;;;6110737;23;20094;-65
2022/11/20 14:15:25;;;;;;;15.73;7.10;;;;;;;;;;6122553;23;20025;-63
2022/11/20 14:17:52;;;;;;;18.60;7.50;;;;;;;;;;6120281;23;20024;-65
2022/11/20 14:20:22;;;;;;;18.27;7.70;;;;;;;;;;6114586;23;20022;-64
2022/11/20 14:22:51;;;;;;;20.35;7.80;;;;;;;;;;6132499;23;20025;-64
2022/11/20 14:25:23;;;;;;;18.83;7.57;;;;;;;;;;6088793;23;20036;-64
2022/11/20 14:27:51;;;;;;;15.25;7.35;;;;;;;;;;6118941;23;20105;-65
2022/11/20 14:30:27;;;;;;;13.98;6.60;;;;;;;;;;6075929;23;20104;-64
2022/11/20 14:32:56;;;;;;;19.48;7.35;;;;;;;;;;6134018;23;20025;-63
2022/11/20 14:35:27;;;;;;;16.52;6.90;;;;;;;;;;6125779;23;20098;-64
2022/11/20 14:37:54;;;;;;;16.77;7.40;;;;;;;;;;6091914;23;20029;-62
2022/11/20 14:40:25;;;;;;;16.48;7.13;;;;;;;;;;6109816;23;20109;-63
2022/11/20 14:42:52;;;;;;;15.38;7.05;;;;;;;;;;6109141;23;20277;-63
2022/11/20 14:45:19;;;;;;;18.20;7.55;;;;;;;;;;6119496;23;20029;-67
2022/11/20 14:47:46;;;;;;;15.48;7.07;;;;;;;;;;6125891;23;20129;-63
2022/11/20 14:50:17;;;;;;;17.88;7.85;;;;;;;;;;6079050;23;20272;-66
2022/11/20 14:52:52;;;;;;;17.92;8.05;;;;;;;;;;6053882;23;20184;-65
2022/11/20 14:55:32;;;;;;;17.33;7.78;;;;;;;;;;5995610;23;20030;-65
2022/11/20 14:58:01;;;;;;;16.90;7.15;;;;;;;;;;6115343;23;20159;-65
2022/11/20 15:00:27;;;;;;;;;;;;;;;;;;6079880;23;20465;-64
2022/11/20 15:02:54;;;;;;;15.75;6.95;;;;;;;;;;6130591;23;19944;-66